Time;durP1;ratioP1;P1;durP2;ratioP2;P2;SDS_P1;SDS_P2;PMS_P1;PMS_P2;Temp;Humidity;BMP_temperature;BMP_pressure;BME280_temperature;BME280_humidity;BME280_pressure;Samples;Min_cycle;Max_cycle;Signal;HPM_P1;HPM_P2
2021/04/02 00:01:28;;;;;;;;;;;;;;;;;;5049710;28;19916;-79
2021/04/02 00:03:53;;;;;;;;;;;;;;;;;;5047102;28;19912;-79
2021/04/02 00:06:19;;;;;;;;;;;;;;;;;;5019510;28;19956;-79
2021/04/02 00:08:44;;;;;;;;;;;;;;;;;;5048234;28;20343;-80
2021/04/02 00:11:10;;;;;;;;;;;;;;;;;;5048245;28;19916;-80
2021/04/02 00:13:36;;;;;;;;;;;;;;;;;;5050253;28;19913;-80
2021/04/02 00:16:02;;;;;;;;;;;;;;;;;;5052031;28;19958;-80
2021/04/02 00:18:27;;;;;;;;;;;;;;;;;;5051742;28;19913;-79
2021/04/02 00:20:56;;;;;;;;;;;;;;;;;;5051436;28;20447;-80
2021/04/02 00:23:21;;;;;;;;;;;;;;;;;;5052032;28;20377;-79
2021/04/02 00:25:47;;;;;;;;;;;;;;;;;;5034647;28;19912;-79
2021/04/02 00:28:12;;;;;;;;;;;;;;;;;;5066403;28;19908;-79
2021/04/02 00:30:41;;;;;;;;;;;;;;;;;;5042668;28;20272;-80
2021/04/02 00:33:07;;;;;;;;;;;;;;;;;;5018163;28;19920;-80
2021/04/02 00:35:32;;;;;;;;;;;;;;;;;;5017567;28;19912;-80
2021/04/02 00:37:57;;;;;;;;;;;;;;;;;;5034704;28;19967;-79
2021/04/02 00:40:33;;;;;;;;;;;;;;;;;;5034135;28;19916;-80
2021/04/02 00:42:58;;;;;;;;;;;;;;;;;;5034490;28;19913;-80
2021/04/02 00:45:24;;;;;;;;;;;;;;;;;;5066160;28;20014;-80
2021/04/02 00:47:49;;;;;;;;;;;;;;;;;;5050718;28;19912;-80
2021/04/02 00:50:23;;;;;;;;;;;;;;;;;;5034216;28;20355;-80
2021/04/02 00:52:48;;;;;;;;;;;;;;;;;;5050922;28;19951;-80
2021/04/02 00:55:14;;;;;;;;;;;;;;;;;;5032228;28;20344;-79
2021/04/02 00:57:39;;;;;;;;;;;;;;;;;;5025616;28;19916;-79
2021/04/02 01:00:06;;;;;;;;;;;;;;;;;;5067804;28;20251;-80
2021/04/02 01:02:31;;;;;;;;;;;;;;;;;;5067513;28;20015;-80
2021/04/02 01:04:56;;;;;;;;;;;;;;;;;;5017952;28;19959;-80
2021/04/02 01:07:22;;;;;;;;;;;;;;;;;;5017886;28;19909;-79
2021/04/02 01:09:47;;;;;;;;;;;;;;;;;;5017579;28;19913;-80
2021/04/02 01:12:13;;;;;;;;;;;;;;;;;;5017622;28;20008;-80
2021/04/02 01:14:38;;;;;;;;;;;;;;;;;;5050530;28;19941;-80
2021/04/02 01:17:03;;;;;;;;;;;;;;;;;;5050717;28;19962;-80
2021/04/02 01:19:29;;;;;;;;;;;;;;;;;;5067761;28;19908;-80
2021/04/02 01:22:15;;;;;;;;;;;;;;;;;;5033402;28;19924;-79
2021/04/02 01:25:01;;;;;;;;;;;;;;;;;;5034530;28;19995;-80
2021/04/02 01:27:39;;;;;;;;;;;;;;;;;;5036264;28;19958;-80
2021/04/02 01:30:06;;;;;;;;;;;;;;;;;;5016976;28;19917;-79
2021/04/02 01:32:44;;;;;;;;;;;;;;;;;;5017810;28;19913;-80
2021/04/02 01:35:19;;;;;;;;;;;;;;;;;;5016952;28;19913;-80
2021/04/02 01:37:45;;;;;;;;;;;;;;;;;;5034492;28;20256;-80
2021/04/02 01:40:11;;;;;;;;;;;;;;;;;;5016809;28;19908;-80
2021/04/02 01:42:37;;;;;;;;;;;;;;;;;;5034172;28;20011;-80
2021/04/02 01:45:03;;;;;;;;;;;;;;;;;;5033555;28;19913;-80
2021/04/02 01:47:28;;;;;;;;;;;;;;;;;;5016907;28;19916;-79
2021/04/02 01:49:54;;;;;;;;;;;;;;;;;;5045225;28;19916;-79
2021/04/02 01:52:20;;;;;;;;;;;;;;;;;;5014711;28;19956;-79
2021/04/02 01:54:46;;;;;;;;;;;;;;;;;;5030092;28;19959;-79
2021/04/02 01:57:11;;;;;;;;;;;;;;;;;;5013836;28;20469;-79
2021/04/02 01:59:36;;;;;;;;;;;;;;;;;;5013968;28;19909;-79
2021/04/02 02:02:02;;;;;;;;;;;;;;;;;;5013969;28;19970;-79
2021/04/02 02:04:27;;;;;;;;;;;;;;;;;;5030904;28;19913;-79
2021/04/02 02:06:53;;;;;;;;;;;;;;;;;;5030491;28;19928;-79
2021/04/02 02:09:21;;;;;;;;;;;;;;;;;;5049482;28;20003;-79
2021/04/02 02:11:46;;;;;;;;;;;;;;;;;;5034149;28;19916;-79
2021/04/02 02:14:12;;;;;;;;;;;;;;;;;;5034155;28;20251;-79
2021/04/02 02:16:39;;;;;;;;;;;;;;;;;;5053159;28;19952;-78
2021/04/02 02:19:06;;;;;;;;;;;;;;;;;;5037442;28;19916;-79
2021/04/02 02:21:31;;;;;;;;;;;;;;;;;;5020399;28;19920;-79
2021/04/02 02:23:58;;;;;;;;;;;;;;;;;;5036673;28;19909;-79
2021/04/02 02:26:24;;;;;;;;;;;;;;;;;;5020824;28;19923;-79
2021/04/02 02:28:49;;;;;;;;;;;;;;;;;;5053551;28;19920;-78
2021/04/02 02:31:14;;;;;;;;;;;;;;;;;;5053212;28;19917;-79
2021/04/02 02:33:40;;;;;;;;;;;;;;;;;;5020549;28;19908;-79
2021/04/02 02:36:06;;;;;;;;;;;;;;;;;;5037009;28;19957;-79
2021/04/02 02:38:31;;;;;;;;;;;;;;;;;;5036640;28;19970;-79
2021/04/02 02:40:57;;;;;;;;;;;;;;;;;;5020239;28;19916;-79
2021/04/02 02:43:22;;;;;;;;;;;;;;;;;;5018149;28;20367;-79
2021/04/02 02:45:47;;;;;;;;;;;;;;;;;;5015489;28;19923;-81
2021/04/02 02:48:13;;;;;;;;;;;;;;;;;;5016888;28;19948;-79
2021/04/02 02:50:40;;;;;;;;;;;;;;;;;;5034043;28;19913;-79
2021/04/02 02:53:05;;;;;;;;;;;;;;;;;;5017055;28;19916;-79
2021/04/02 02:55:31;;;;;;;;;;;;;;;;;;5049973;28;20350;-79
2021/04/02 02:57:57;;;;;;;;;;;;;;;;;;5049837;28;19913;-79
2021/04/02 03:00:23;;;;;;;;;;;;;;;;;;5033156;28;19924;-79
2021/04/02 03:02:49;;;;;;;;;;;;;;;;;;5039607;28;20420;-80
2021/04/02 03:05:19;;;;;;;;;;;;;;;;;;5019995;28;19921;-79
2021/04/02 03:07:45;;;;;;;;;;;;;;;;;;5019448;28;19952;-79
2021/04/02 03:10:11;;;;;;;;;;;;;;;;;;5036400;28;20314;-79
2021/04/02 03:12:37;;;;;;;;;;;;;;;;;;5019900;28;19912;-79
2021/04/02 03:15:03;;;;;;;;;;;;;;;;;;5035261;28;20027;-79
2021/04/02 03:17:28;;;;;;;;;;;;;;;;;;5052948;28;20019;-79
2021/04/02 03:19:54;;;;;;;;;;;;;;;;;;5045527;28;19917;-79
2021/04/02 03:22:19;;;;;;;;;;;;;;;;;;5044459;28;19912;-79
2021/04/02 03:24:44;;;;;;;;;;;;;;;;;;5052275;28;19931;-79
2021/04/02 03:27:10;;;;;;;;;;;;;;;;;;5052949;28;19995;-79
2021/04/02 03:29:35;;;;;;;;;;;;;;;;;;5046845;28;19959;-79
2021/04/02 03:32:03;;;;;;;;;;;;;;;;;;5065924;28;19912;-79
2021/04/02 03:34:28;;;;;;;;;;;;;;;;;;5036292;28;19912;-79
2021/04/02 03:36:54;;;;;;;;;;;;;;;;;;5035804;28;20023;-79
2021/04/02 03:39:21;;;;;;;;;;;;;;;;;;5035618;28;19915;-79
2021/04/02 03:41:46;;;;;;;;;;;;;;;;;;5052116;28;19909;-79
2021/04/02 03:44:12;;;;;;;;;;;;;;;;;;5035779;28;19916;-79
2021/04/02 03:46:37;;;;;;;;;;;;;;;;;;5030967;28;20736;-79
2021/04/02 03:49:03;;;;;;;;;;;;;;;;;;5016008;28;20007;-80
2021/04/02 03:51:29;;;;;;;;;;;;;;;;;;5032233;28;20279;-79
2021/04/02 03:53:59;;;;;;;;;;;;;;;;;;5015807;28;19939;-80
2021/04/02 03:56:28;;;;;;;;;;;;;;;;;;5032134;28;20321;-80
2021/04/02 03:58:55;;;;;;;;;;;;;;;;;;5038290;28;19916;-79
2021/04/02 04:01:20;;;;;;;;;;;;;;;;;;5051411;28;19913;-79
2021/04/02 04:03:47;;;;;;;;;;;;;;;;;;5035518;28;20275;-80
2021/04/02 04:06:16;;;;;;;;;;;;;;;;;;5034842;28;19977;-79
2021/04/02 04:08:42;;;;;;;;;;;;;;;;;;5018999;28;19908;-80
2021/04/02 04:11:07;;;;;;;;;;;;;;;;;;5031583;28;19919;-79
2021/04/02 04:13:34;;;;;;;;;;;;;;;;;;5047415;28;19921;-80
2021/04/02 04:15:59;;;;;;;;;;;;;;;;;;5018270;28;20003;-79
2021/04/02 04:18:24;;;;;;;;;;;;;;;;;;5035457;28;19952;-80
2021/04/02 04:20:52;;;;;;;;;;;;;;;;;;5034077;28;19913;-80
2021/04/02 04:23:18;;;;;;;;;;;;;;;;;;5017947;28;19952;-79
2021/04/02 04:25:43;;;;;;;;;;;;;;;;;;5050978;28;19959;-79
2021/04/02 04:28:09;;;;;;;;;;;;;;;;;;5051805;28;19959;-79
2021/04/02 04:30:34;;;;;;;;;;;;;;;;;;5022672;28;19970;-79
2021/04/02 04:33:00;;;;;;;;;;;;;;;;;;5031364;28;19913;-80
2021/04/02 04:35:25;;;;;;;;;;;;;;;;;;5048289;28;19915;-79
2021/04/02 04:37:51;;;;;;;;;;;;;;;;;;5048192;28;19999;-79
2021/04/02 04:40:18;;;;;;;;;;;;;;;;;;5033614;28;19920;-79
2021/04/02 04:42:44;;;;;;;;;;;;;;;;;;5051363;28;19974;-79
2021/04/02 04:45:09;;;;;;;;;;;;;;;;;;5051248;28;20382;-79
2021/04/02 04:47:55;;;;;;;;;;;;;;;;;;5037321;28;19952;-79
2021/04/02 04:50:20;;;;;;;;;;;;;;;;;;5051077;28;20306;-78
2021/04/02 04:52:48;;;;;;;;;;;;;;;;;;5051703;28;20270;-79
2021/04/02 04:55:14;;;;;;;;;;;;;;;;;;5052454;28;19947;-79
2021/04/02 04:57:39;;;;;;;;;;;;;;;;;;5050724;28;20350;-79
2021/04/02 05:00:05;;;;;;;;;;;;;;;;;;5050829;28;19933;-79
2021/04/02 05:02:30;;;;;;;;;;;;;;;;;;5033976;28;20293;-79
2021/04/02 05:04:56;;;;;;;;;;;;;;;;;;5051252;28;20373;-79
2021/04/02 05:07:21;;;;;;;;;;;;;;;;;;5031586;28;19956;-79
2021/04/02 05:09:46;;;;;;;;;;;;;;;;;;5048897;28;19909;-79
2021/04/02 05:12:12;;;;;;;;;;;;;;;;;;5017743;28;19908;-79
2021/04/02 05:14:38;;;;;;;;;;;;;;;;;;5028885;28;19913;-79
2021/04/02 05:17:03;;;;;;;;;;;;;;;;;;5017510;28;19970;-79
2021/04/02 05:19:28;;;;;;;;;;;;;;;;;;5050322;28;19927;-79
2021/04/02 05:21:54;;;;;;;;;;;;;;;;;;5017039;28;19924;-79
2021/04/02 05:24:20;;;;;;;;;;;;;;;;;;5017774;28;20292;-80
2021/04/02 05:26:46;;;;;;;;;;;;;;;;;;5034423;28;19916;-79
2021/04/02 05:29:11;;;;;;;;;;;;;;;;;;5016972;28;19913;-79
2021/04/02 05:31:36;;;;;;;;;;;;;;;;;;5061631;28;19924;-79
2021/04/02 05:34:02;;;;;;;;;;;;;;;;;;5013781;28;19909;-79
2021/04/02 05:36:27;;;;;;;;;;;;;;;;;;5066811;28;19956;-78
2021/04/02 05:38:52;;;;;;;;;;;;;;;;;;5050401;28;19952;-78
2021/04/02 05:41:18;;;;;;;;;;;;;;;;;;5039886;28;20004;-79
2021/04/02 05:43:48;;;;;;;;;;;;;;;;;;5021119;28;19917;-79
2021/04/02 05:46:13;;;;;;;;;;;;;;;;;;5048034;28;19971;-79
2021/04/02 05:48:39;;;;;;;;;;;;;;;;;;5018325;28;19909;-79
2021/04/02 05:51:05;;;;;;;;;;;;;;;;;;5034366;28;19917;-80
2021/04/02 05:53:30;;;;;;;;;;;;;;;;;;5035576;28;20260;-79
2021/04/02 05:55:56;;;;;;;;;;;;;;;;;;5023426;28;19912;-79
2021/04/02 05:58:22;;;;;;;;;;;;;;;;;;5054143;28;19965;-79
2021/04/02 06:00:47;;;;;;;;;;;;;;;;;;5053552;28;19913;-79
2021/04/02 06:03:12;;;;;;;;;;;;;;;;;;5037529;28;19978;-79
2021/04/02 06:05:38;;;;;;;;;;;;;;;;;;5054082;28;19936;-79
2021/04/02 06:08:03;;;;;;;;;;;;;;;;;;5054367;28;19956;-80
2021/04/02 06:10:29;;;;;;;;;;;;;;;;;;5034255;28;19921;-80
2021/04/02 06:12:55;;;;;;;;;;;;;;;;;;5019229;28;19928;-82
2021/04/02 06:15:22;;;;;;;;;;;;;;;;;;5028611;28;19924;-81
2021/04/02 06:17:57;;;;;;;;;;;;;;;;;;5016388;28;19962;-81
2021/04/02 06:20:24;;;;;;;;;;;;;;;;;;5034017;28;19916;-80
2021/04/02 06:23:00;;;;;;;;;;;;;;;;;;5017168;28;19913;-80
2021/04/02 06:25:25;;;;;;;;;;;;;;;;;;5017287;28;20051;-80
2021/04/02 06:27:52;;;;;;;;;;;;;;;;;;5020644;28;20371;-79
2021/04/02 06:30:17;;;;;;;;;;;;;;;;;;5019214;28;19916;-79
2021/04/02 06:32:44;;;;;;;;;;;;;;;;;;5053616;28;19932;-80
2021/04/02 06:35:10;;;;;;;;;;;;;;;;;;5053158;28;19913;-79
2021/04/02 06:37:35;;;;;;;;;;;;;;;;;;5036703;28;19923;-79
2021/04/02 06:40:01;;;;;;;;;;;;;;;;;;5053708;28;19916;-80
2021/04/02 06:42:32;;;;;;;;;;;;;;;;;;5070018;28;20362;-80
2021/04/02 06:44:58;;;;;;;;;;;;;;;;;;5053092;28;19908;-80
2021/04/02 06:47:31;;;;;;;;;;;;;;;;;;5053527;28;20341;-79
2021/04/02 06:49:56;;;;;;;;;;;;;;;;;;5036535;28;20321;-80
2021/04/02 06:52:21;;;;;;;;;;;;;;;;;;5036136;28;20337;-81
2021/04/02 06:54:47;;;;;;;;;;;;;;;;;;5035263;28;20417;-79
2021/04/02 06:57:12;;;;;;;;;;;;;;;;;;5020170;28;19915;-80
2021/04/02 06:59:38;;;;;;;;;;;;;;;;;;5034996;28;19956;-79
2021/04/02 07:02:03;;;;;;;;;;;;;;;;;;5052675;28;20008;-79
2021/04/02 07:04:30;;;;;;;;;;;;;;;;;;5033392;28;19952;-79
2021/04/02 07:06:55;;;;;;;;;;;;;;;;;;5020675;28;19936;-79
2021/04/02 07:09:22;;;;;;;;;;;;;;;;;;5033153;28;20313;-80
2021/04/02 07:11:59;;;;;;;;;;;;;;;;;;5052204;28;20370;-77
2021/04/02 07:14:24;;;;;;;;;;;;;;;;;;5027506;28;20067;-79
2021/04/02 07:16:51;;;;;;;;;;;;;;;;;;5033187;28;20316;-80
2021/04/02 07:19:16;;;;;;;;;;;;;;;;;;5036072;28;20347;-80
2021/04/02 07:21:42;;;;;;;;;;;;;;;;;;5035909;28;19962;-79
2021/04/02 07:24:07;;;;;;;;;;;;;;;;;;5019420;28;19915;-80
2021/04/02 07:26:32;;;;;;;;;;;;;;;;;;5036163;28;20274;-79
2021/04/02 07:28:58;;;;;;;;;;;;;;;;;;5035260;28;20046;-79
2021/04/02 07:31:23;;;;;;;;;;;;;;;;;;5043968;28;19978;-80
2021/04/02 07:33:49;;;;;;;;;;;;;;;;;;5051911;28;20095;-79
2021/04/02 07:36:19;;;;;;;;;;;;;;;;;;5052106;28;19923;-80
2021/04/02 07:38:48;;;;;;;;;;;;;;;;;;5038019;28;19924;-79
2021/04/02 07:41:16;;;;;;;;;;;;;;;;;;5033397;28;19939;-79
2021/04/02 07:43:53;;;;;;;;;;;;;;;;;;5015871;28;19916;-79
2021/04/02 07:46:20;;;;;;;;;;;;;;;;;;5052458;28;20381;-79
2021/04/02 07:48:56;;;;;;;;;;;;;;;;;;5052554;28;19919;-80
2021/04/02 07:51:21;;;;;;;;;;;;;;;;;;5068765;28;19931;-79
2021/04/02 07:53:48;;;;;;;;;;;;;;;;;;5068727;28;20425;-80
2021/04/02 07:56:14;;;;;;;;;;;;;;;;;;5047004;28;20371;-79
2021/04/02 07:58:51;;;;;;;;;;;;;;;;;;5015941;28;19913;-80
2021/04/02 08:01:17;;;;;;;;;;;;;;;;;;5032058;28;19920;-79
2021/04/02 08:03:43;;;;;;;;;;;;;;;;;;5028913;28;20000;-80
2021/04/02 08:06:10;;;;;;;;;;;;;;;;;;5004959;28;19913;-79
2021/04/02 08:08:53;;;;;;;;;;;;;;;;;;5032144;28;19924;-80
2021/04/02 08:11:20;;;;;;;;;;;;;;;;;;5015706;28;19924;-79
2021/04/02 08:13:45;;;;;;;;;;;;;;;;;;5018573;28;19927;-79
2021/04/02 08:16:26;;;;;;;;;;;;;;;;;;5052053;28;19913;-79
2021/04/02 08:19:00;;;;;;;;;;;;;;;;;;5051505;28;19915;-79
2021/04/02 08:21:25;;;;;;;;;;;;;;;;;;5050965;28;19920;-82
2021/04/02 08:23:51;;;;;;;;;;;;;;;;;;5031140;28;19913;-85
2021/04/02 08:26:17;;;;;;;;;;;;;;;;;;5012697;28;19924;-86
2021/04/02 08:28:42;;;;;;;;;;;;;;;;;;5045862;28;19919;-86
2021/04/02 08:31:08;;;;;;;;;;;;;;;;;;5035615;28;19971;-87
2021/04/02 08:33:33;;;;;;;;;;;;;;;;;;5023459;28;19917;-89
2021/04/02 08:35:59;;;;;;;;;;;;;;;;;;5052942;28;19924;-87
2021/04/02 08:38:25;;;;;;;;;;;;;;;;;;5019849;28;19916;-87
2021/04/02 08:40:55;;;;;;;;;;;;;;;;;;5019373;28;19916;-88
2021/04/02 08:43:22;;;;;;;;;;;;;;;;;;5035835;28;19926;-86
2021/04/02 08:45:47;;;;;;;;;;;;;;;;;;5019181;28;19908;-86
2021/04/02 08:48:24;;;;;;;;;;;;;;;;;;5018967;28;19919;-86
2021/04/02 08:50:50;;;;;;;;;;;;;;;;;;5018258;28;20411;-84
2021/04/02 08:53:16;;;;;;;;;;;;;;;;;;5034904;28;20062;-86
2021/04/02 08:55:45;;;;;;;;;;;;;;;;;;5033749;28;19954;-85
2021/04/02 08:58:11;;;;;;;;;;;;;;;;;;5051138;28;19944;-87
2021/04/02 09:00:38;;;;;;;;;;;;;;;;;;5012254;28;20362;-84
2021/04/02 09:03:05;;;;;;;;;;;;;;;;;;5035403;28;20027;-87
2021/04/02 09:05:34;;;;;;;;;;;;;;;;;;5035465;28;19966;-88
2021/04/02 09:08:00;;;;;;;;;;;;;;;;;;5035859;28;19913;-87
2021/04/02 09:10:27;;;;;;;;;;;;;;;;;;5034928;28;20338;-87
2021/04/02 09:12:56;;;;;;;;;;;;;;;;;;5021695;28;19923;-88
2021/04/02 09:15:21;;;;;;;;;;;;;;;;;;5031526;28;19908;-88
2021/04/02 09:17:47;;;;;;;;;;;;;;;;;;5059500;28;20000;-88
2021/04/02 09:20:14;;;;;;;;;;;;;;;;;;5047055;28;19995;-88
2021/04/02 09:22:42;;;;;;;;;;;;;;;;;;5041907;28;19963;-88
2021/04/02 09:25:07;;;;;;;;;;;;;;;;;;5052192;28;19908;-88
2021/04/02 09:27:39;;;;;;;;;;;;;;;;;;5039626;28;20212;-87
2021/04/02 09:30:05;;;;;;;;;;;;;;;;;;5028493;28;19963;-87
2021/04/02 09:32:32;;;;;;;;;;;;;;;;;;5018641;28;19955;-87
2021/04/02 09:34:58;;;;;;;;;;;;;;;;;;5018168;28;19908;-87
2021/04/02 09:37:26;;;;;;;;;;;;;;;;;;5034864;28;19916;-87
2021/04/02 09:39:56;;;;;;;;;;;;;;;;;;5018498;28;19999;-87
2021/04/02 09:42:23;;;;;;;;;;;;;;;;;;5018419;28;19935;-87
2021/04/02 09:44:50;;;;;;;;;;;;;;;;;;5018869;28;19916;-87
2021/04/02 09:47:17;;;;;;;;;;;;;;;;;;5035133;28;20286;-88
2021/04/02 09:49:46;;;;;;;;;;;;;;;;;;5018648;28;19908;-87
2021/04/02 09:52:13;;;;;;;;;;;;;;;;;;5032283;28;19925;-87
2021/04/02 09:54:42;;;;;;;;;;;;;;;;;;5036271;28;19916;-86
2021/04/02 09:57:08;;;;;;;;;;;;;;;;;;5071971;28;19957;-88
2021/04/02 09:59:35;;;;;;;;;;;;;;;;;;5038425;28;19912;-87
2021/04/02 10:02:01;;;;;;;;;;;;;;;;;;5038103;28;19942;-87
2021/04/02 10:04:27;;;;;;;;;;;;;;;;;;5038617;28;20046;-87
2021/04/02 10:06:53;;;;;;;;;;;;;;;;;;5038416;28;19916;-87
2021/04/02 10:09:19;;;;;;;;;;;;;;;;;;5038136;28;19912;-88
2021/04/02 10:11:47;;;;;;;;;;;;;;;;;;5030668;28;19939;-88
2021/04/02 10:14:13;;;;;;;;;;;;;;;;;;5018090;28;19909;-86
2021/04/02 10:16:38;;;;;;;;;;;;;;;;;;5032318;28;19939;-80
2021/04/02 10:19:05;;;;;;;;;;;;;;;;;;5049788;28;20300;-80
2021/04/02 10:21:31;;;;;;;;;;;;;;;;;;5049793;28;19919;-80
2021/04/02 10:23:57;;;;;;;;;;;;;;;;;;5049818;28;19912;-79
2021/04/02 10:26:22;;;;;;;;;;;;;;;;;;5033787;28;19912;-80
2021/04/02 10:28:47;;;;;;;;;;;;;;;;;;5050876;28;19944;-80
2021/04/02 10:31:13;;;;;;;;;;;;;;;;;;5043205;28;19905;-80
2021/04/02 10:33:38;;;;;;;;;;;;;;;;;;5050317;28;19913;-80
2021/04/02 10:36:04;;;;;;;;;;;;;;;;;;5034200;28;19909;-79
2021/04/02 10:38:29;;;;;;;;;;;;;;;;;;5016898;28;19936;-80
2021/04/02 10:40:54;;;;;;;;;;;;;;;;;;5016945;28;19913;-80
2021/04/02 10:43:20;;;;;;;;;;;;;;;;;;5050202;28;19909;-80
2021/04/02 10:45:45;;;;;;;;;;;;;;;;;;5033838;28;19913;-80
2021/04/02 10:48:10;;;;;;;;;;;;;;;;;;5033455;28;19920;-80
2021/04/02 10:50:36;;;;;;;;;;;;;;;;;;5000321;28;19909;-85
2021/04/02 10:53:02;;;;;;;;;;;;;;;;;;5017650;28;19913;-84
2021/04/02 10:55:29;;;;;;;;;;;;;;;;;;5035364;28;20006;-88
2021/04/02 10:57:57;;;;;;;;;;;;;;;;;;5021084;28;19912;-87
2021/04/02 11:00:23;;;;;;;;;;;;;;;;;;5021502;28;19909;-86
2021/04/02 11:02:49;;;;;;;;;;;;;;;;;;5020396;28;19987;-87
2021/04/02 11:05:16;;;;;;;;;;;;;;;;;;5020392;28;19912;-86
2021/04/02 11:07:41;;;;;;;;;;;;;;;;;;5020215;28;19936;-80
2021/04/02 11:10:07;;;;;;;;;;;;;;;;;;5019123;28;19939;-80
2021/04/02 11:12:32;;;;;;;;;;;;;;;;;;5042087;28;20363;-80
2021/04/02 11:14:58;;;;;;;;;;;;;;;;;;5045573;28;19915;-80
2021/04/02 11:17:23;;;;;;;;;;;;;;;;;;5026923;28;19916;-80
2021/04/02 11:19:49;;;;;;;;;;;;;;;;;;5036075;28;20286;-79
2021/04/02 11:22:14;;;;;;;;;;;;;;;;;;5035627;28;19996;-79
2021/04/02 11:24:39;;;;;;;;;;;;;;;;;;5043377;28;19917;-79
2021/04/02 11:27:05;;;;;;;;;;;;;;;;;;5016228;28;19913;-79
2021/04/02 11:29:30;;;;;;;;;;;;;;;;;;5016084;28;19963;-79
2021/04/02 11:31:56;;;;;;;;;;;;;;;;;;5048532;28;19915;-80
2021/04/02 11:34:21;;;;;;;;;;;;;;;;;;5035894;28;19909;-80
2021/04/02 11:36:46;;;;;;;;;;;;;;;;;;5036197;28;19909;-80
2021/04/02 11:39:12;;;;;;;;;;;;;;;;;;5019429;28;19959;-79
2021/04/02 11:41:37;;;;;;;;;;;;;;;;;;5035311;28;19909;-79
2021/04/02 11:44:02;;;;;;;;;;;;;;;;;;5019212;28;19908;-79
2021/04/02 11:46:28;;;;;;;;;;;;;;;;;;5019193;28;19961;-79
2021/04/02 11:48:53;;;;;;;;;;;;;;;;;;5052585;28;19913;-79
2021/04/02 11:51:19;;;;;;;;;;;;;;;;;;5052105;28;19924;-79
2021/04/02 11:53:44;;;;;;;;;;;;;;;;;;5052327;28;19917;-79
2021/04/02 11:56:09;;;;;;;;;;;;;;;;;;5032013;28;19988;-79
2021/04/02 11:58:35;;;;;;;;;;;;;;;;;;5015246;28;19913;-79
2021/04/02 12:01:01;;;;;;;;;;;;;;;;;;5031825;28;19909;-79
2021/04/02 12:03:26;;;;;;;;;;;;;;;;;;5018815;28;19913;-79
2021/04/02 12:05:51;;;;;;;;;;;;;;;;;;5035348;28;19915;-79
2021/04/02 12:08:16;;;;;;;;;;;;;;;;;;5018819;28;19957;-78
2021/04/02 12:10:44;;;;;;;;;;;;;;;;;;5051547;28;19917;-79
2021/04/02 12:13:09;;;;;;;;;;;;;;;;;;5035481;28;19919;-79
2021/04/02 12:15:34;;;;;;;;;;;;;;;;;;5035117;28;19920;-79
2021/04/02 12:18:00;;;;;;;;;;;;;;;;;;5067938;28;19909;-79
2021/04/02 12:20:25;;;;;;;;;;;;;;;;;;5043239;28;19916;-78
2021/04/02 12:22:50;;;;;;;;;;;;;;;;;;5012569;28;19924;-78
2021/04/02 12:25:16;;;;;;;;;;;;;;;;;;5013916;28;19952;-78
2021/04/02 12:27:41;;;;;;;;;;;;;;;;;;5051559;28;19923;-77
2021/04/02 12:30:08;;;;;;;;;;;;;;;;;;5050904;28;19962;-77
2021/04/02 12:32:33;;;;;;;;;;;;;;;;;;5034370;28;19920;-77
2021/04/02 12:34:59;;;;;;;;;;;;;;;;;;5051421;28;19916;-77
2021/04/02 12:37:25;;;;;;;;;;;;;;;;;;5012389;28;19913;-77
2021/04/02 12:39:50;;;;;;;;;;;;;;;;;;5034719;28;19909;-77
2021/04/02 12:42:15;;;;;;;;;;;;;;;;;;5034678;28;19909;-77
2021/04/02 12:44:41;;;;;;;;;;;;;;;;;;5051209;28;19909;-77
2021/04/02 12:47:06;;;;;;;;;;;;;;;;;;5034462;28;19923;-77
2021/04/02 12:49:31;;;;;;;;;;;;;;;;;;5051317;28;19962;-78
2021/04/02 12:51:57;;;;;;;;;;;;;;;;;;5050361;28;19908;-77
2021/04/02 12:54:22;;;;;;;;;;;;;;;;;;5034071;28;20015;-77
2021/04/02 12:56:48;;;;;;;;;;;;;;;;;;5013146;28;19916;-77
2021/04/02 12:59:13;;;;;;;;;;;;;;;;;;5030735;28;19913;-77
2021/04/02 13:01:38;;;;;;;;;;;;;;;;;;5030905;28;19920;-77
2021/04/02 13:04:04;;;;;;;;;;;;;;;;;;5041581;28;19921;-77
2021/04/02 13:06:30;;;;;;;;;;;;;;;;;;5030901;28;19913;-77
2021/04/02 13:08:55;;;;;;;;;;;;;;;;;;5031174;28;19916;-77
2021/04/02 13:11:21;;;;;;;;;;;;;;;;;;5030946;28;19916;-77
2021/04/02 13:13:47;;;;;;;;;;;;;;;;;;5033925;28;20002;-78
2021/04/02 13:16:12;;;;;;;;;;;;;;;;;;5014600;28;20368;-78
2021/04/02 13:18:38;;;;;;;;;;;;;;;;;;5047674;28;19916;-77
2021/04/02 13:21:03;;;;;;;;;;;;;;;;;;5042695;28;20004;-78
2021/04/02 13:23:28;;;;;;;;;;;;;;;;;;5064682;28;20012;-77
2021/04/02 13:25:54;;;;;;;;;;;;;;;;;;5055280;28;19912;-77
2021/04/02 13:28:19;;;;;;;;;;;;;;;;;;5033718;28;19951;-78
2021/04/02 13:30:45;;;;;;;;;;;;;;;;;;5066428;28;19917;-78
2021/04/02 13:33:10;;;;;;;;;;;;;;;;;;5050382;28;19909;-78
2021/04/02 13:35:35;;;;;;;;;;;;;;;;;;5050269;28;19931;-77
2021/04/02 13:38:01;;;;;;;;;;;;;;;;;;5050411;28;19925;-78
2021/04/02 13:40:27;;;;;;;;;;;;;;;;;;5033806;28;19919;-78
2021/04/02 13:42:52;;;;;;;;;;;;;;;;;;5017584;28;19915;-77
2021/04/02 13:45:17;;;;;;;;;;;;;;;;;;5050062;28;19909;-78
2021/04/02 13:47:43;;;;;;;;;;;;;;;;;;5034145;28;19913;-78
2021/04/02 13:50:18;;;;;;;;;;;;;;;;;;5033540;28;19917;-78
2021/04/02 13:52:44;;;;;;;;;;;;;;;;;;5022947;28;20382;-78
2021/04/02 13:55:10;;;;;;;;;;;;;;;;;;5040132;28;19923;-78
2021/04/02 13:57:35;;;;;;;;;;;;;;;;;;5033441;28;19913;-77
2021/04/02 14:00:00;;;;;;;;;;;;;;;;;;5050363;28;19930;-77
2021/04/02 14:02:26;;;;;;;;;;;;;;;;;;5050363;28;19908;-77
2021/04/02 14:04:52;;;;;;;;;;;;;;;;;;5052682;28;19916;-77
2021/04/02 14:07:18;;;;;;;;;;;;;;;;;;5037720;28;20026;-78
2021/04/02 14:09:43;;;;;;;;;;;;;;;;;;5037919;28;19962;-77
2021/04/02 14:12:09;;;;;;;;;;;;;;;;;;5037425;28;19920;-77
2021/04/02 14:14:34;;;;;;;;;;;;;;;;;;5014274;28;19920;-78
2021/04/02 14:16:59;;;;;;;;;;;;;;;;;;5017643;28;19915;-77
2021/04/02 14:19:25;;;;;;;;;;;;;;;;;;5019987;28;20675;-78
2021/04/02 14:21:50;;;;;;;;;;;;;;;;;;5036955;28;20015;-78
2021/04/02 14:24:16;;;;;;;;;;;;;;;;;;5053617;28;19920;-78
2021/04/02 14:26:41;;;;;;;;;;;;;;;;;;5068514;28;19912;-78
2021/04/02 14:29:07;;;;;;;;;;;;;;;;;;5053348;28;19908;-78
2021/04/02 14:31:32;;;;;;;;;;;;;;;;;;5070447;28;20007;-78
2021/04/02 14:33:57;;;;;;;;;;;;;;;;;;5036906;28;19932;-78
2021/04/02 14:36:23;;;;;;;;;;;;;;;;;;5053796;28;19916;-78
2021/04/02 14:38:48;;;;;;;;;;;;;;;;;;5053519;28;19922;-78
2021/04/02 14:41:13;;;;;;;;;;;;;;;;;;5036871;28;20392;-78
2021/04/02 14:43:39;;;;;;;;;;;;;;;;;;5036877;28;19912;-78
2021/04/02 14:46:04;;;;;;;;;;;;;;;;;;5070647;28;19924;-78
2021/04/02 14:48:29;;;;;;;;;;;;;;;;;;5053666;28;20297;-78
2021/04/02 14:50:55;;;;;;;;;;;;;;;;;;5070147;28;19917;-78
2021/04/02 14:53:20;;;;;;;;;;;;;;;;;;5070186;28;19919;-78
2021/04/02 14:55:46;;;;;;;;;;;;;;;;;;5036749;28;19962;-78
2021/04/02 14:58:11;;;;;;;;;;;;;;;;;;5052921;28;19966;-77
2021/04/02 15:00:42;;;;;;;;;;;;;;;;;;5051408;28;19919;-76
2021/04/02 15:03:08;;;;;;;;;;;;;;;;;;5052993;28;19916;-77
2021/04/02 15:05:33;;;;;;;;;;;;;;;;;;5053170;28;19908;-77
2021/04/02 15:07:58;;;;;;;;;;;;;;;;;;5036552;28;20306;-76
2021/04/02 15:10:23;;;;;;;;;;;;;;;;;;5052673;28;19921;-77
2021/04/02 15:12:49;;;;;;;;;;;;;;;;;;5019315;28;19912;-77
2021/04/02 15:15:15;;;;;;;;;;;;;;;;;;5028514;28;19924;-77
2021/04/02 15:17:40;;;;;;;;;;;;;;;;;;5036193;28;19909;-78
2021/04/02 15:20:06;;;;;;;;;;;;;;;;;;5052825;28;20351;-78
2021/04/02 15:22:31;;;;;;;;;;;;;;;;;;5068992;28;19912;-78
2021/04/02 15:24:56;;;;;;;;;;;;;;;;;;5035863;28;19913;-78
2021/04/02 15:27:22;;;;;;;;;;;;;;;;;;5035318;28;19918;-77
2021/04/02 15:29:47;;;;;;;;;;;;;;;;;;5052744;28;19912;-78
2021/04/02 15:32:12;;;;;;;;;;;;;;;;;;5005584;28;19917;-78
2021/04/02 15:34:40;;;;;;;;;;;;;;;;;;5036210;28;19986;-78
2021/04/02 15:37:07;;;;;;;;;;;;;;;;;;5052274;28;19940;-78
2021/04/02 15:39:33;;;;;;;;;;;;;;;;;;5036055;28;19916;-78
2021/04/02 15:41:58;;;;;;;;;;;;;;;;;;5035639;28;19909;-77
2021/04/02 15:44:23;;;;;;;;;;;;;;;;;;5036410;28;20283;-76
2021/04/02 15:46:48;;;;;;;;;;;;;;;;;;5052355;28;19923;-78
2021/04/02 15:49:14;;;;;;;;;;;;;;;;;;5035183;28;19916;-77
2021/04/02 15:51:39;;;;;;;;;;;;;;;;;;5068771;28;19924;-78
2021/04/02 15:54:04;;;;;;;;;;;;;;;;;;5052326;28;20342;-77
2021/04/02 15:56:30;;;;;;;;;;;;;;;;;;5052143;28;19916;-78
2021/04/02 15:58:55;;;;;;;;;;;;;;;;;;5035481;28;20370;-79
2021/04/02 16:01:21;;;;;;;;;;;;;;;;;;5036417;28;19913;-86
2021/04/02 16:03:49;;;;;;;;;;;;;;;;;;5019236;28;19961;-79
2021/04/02 16:06:15;;;;;;;;;;;;;;;;;;5035599;28;19959;-81
2021/04/02 16:08:40;;;;;;;;;;;;;;;;;;5030922;28;19952;-77
2021/04/02 16:11:05;;;;;;;;;;;;;;;;;;5045136;28;20000;-76
2021/04/02 16:13:31;;;;;;;;;;;;;;;;;;5051878;28;19909;-76
2021/04/02 16:15:56;;;;;;;;;;;;;;;;;;5051986;28;19916;-76
2021/04/02 16:18:21;;;;;;;;;;;;;;;;;;5051724;28;19916;-77
2021/04/02 16:20:47;;;;;;;;;;;;;;;;;;5051785;28;19912;-76
2021/04/02 16:23:15;;;;;;;;;;;;;;;;;;5031611;28;20374;-76
2021/04/02 16:25:45;;;;;;;;;;;;;;;;;;5031290;28;20349;-76
2021/04/02 16:28:14;;;;;;;;;;;;;;;;;;5032541;28;19913;-77
2021/04/02 16:30:41;;;;;;;;;;;;;;;;;;5031381;28;19915;-77
2021/04/02 16:33:07;;;;;;;;;;;;;;;;;;5015203;28;19909;-77
2021/04/02 16:35:32;;;;;;;;;;;;;;;;;;5032039;28;19959;-77
2021/04/02 16:37:57;;;;;;;;;;;;;;;;;;5031258;28;19916;-77
2021/04/02 16:40:23;;;;;;;;;;;;;;;;;;5030765;28;19913;-77